createdAt,value
2022-11-24T00:01:05.839Z,98069.84
2022-11-24T00:03:32.627Z,98073.00
2022-11-24T00:06:04.441Z,98071.63
2022-11-24T00:08:30.976Z,98071.75
2022-11-24T00:11:09.176Z,98068.31
2022-11-24T00:13:36.001Z,98062.38
2022-11-24T00:16:14.378Z,98072.69
2022-11-24T00:18:42.967Z,98070.59
2022-11-24T00:21:10.310Z,98081.28
2022-11-24T00:23:37.741Z,98069.47
2022-11-24T00:26:08.760Z,98078.25
2022-11-24T00:28:36.779Z,98084.03
2022-11-24T00:31:04.818Z,98086.06
2022-11-24T00:33:31.897Z,98088.09
2022-11-24T00:36:00.042Z,98084.09
2022-11-24T00:38:27.190Z,98091.56
2022-11-24T00:40:53.672Z,98089.09
2022-11-24T00:43:22.872Z,98094.78
2022-11-24T00:45:49.299Z,98093.34
2022-11-24T00:48:16.040Z,98106.53
2022-11-24T00:50:42.454Z,98103.75
2022-11-24T00:53:09.860Z,98105.44
2022-11-24T00:55:36.286Z,98095.38
2022-11-24T00:58:02.718Z,98090.91
2022-11-24T01:00:29.392Z,98094.53
2022-11-24T01:02:55.860Z,98114.09
2022-11-24T01:05:22.275Z,98106.06
2022-11-24T01:07:48.734Z,98113.00
2022-11-24T01:10:15.175Z,98115.00
2022-11-24T01:12:41.667Z,98126.09
2022-11-24T01:15:09.035Z,98106.66
2022-11-24T01:17:35.459Z,98114.97
2022-11-24T01:20:01.902Z,98122.31
2022-11-24T01:22:28.417Z,98126.75
2022-11-24T01:24:54.808Z,98141.69
2022-11-24T01:27:21.284Z,98125.84
2022-11-24T01:29:47.743Z,98130.66
2022-11-24T01:32:14.253Z,98133.03
2022-11-24T01:34:40.643Z,98135.38
2022-11-24T01:37:07.032Z,98148.50
2022-11-24T01:39:33.414Z,98140.88
2022-11-24T01:42:02.687Z,98152.31
2022-11-24T01:44:30.582Z,98146.69
2022-11-24T01:47:06.591Z,98144.66
2022-11-24T01:49:39.111Z,98156.91
2022-11-24T01:52:15.900Z,98153.75
2022-11-24T01:54:48.126Z,98153.94
2022-11-24T01:57:24.518Z,98154.94
2022-11-24T01:59:55.874Z,98150.84
2022-11-24T02:02:28.368Z,98155.75
2022-11-24T02:04:58.219Z,98153.47
2022-11-24T02:07:25.275Z,98155.19
2022-11-24T02:09:59.342Z,98167.72
2022-11-24T02:12:29.844Z,98166.19
2022-11-24T02:14:56.644Z,98163.13
2022-11-24T02:17:23.067Z,98158.31
2022-11-24T02:20:04.268Z,98159.53
2022-11-24T02:22:57.035Z,98149.69
2022-11-24T02:25:52.058Z,98136.53
2022-11-24T02:28:21.662Z,98138.91
2022-11-24T02:30:49.246Z,98134.69
2022-11-24T02:33:15.936Z,98135.19
2022-11-24T02:35:42.639Z,98122.22
2022-11-24T02:38:16.193Z,98131.84
2022-11-24T02:40:47.841Z,98120.91
2022-11-24T02:43:19.810Z,98129.88
2022-11-24T02:45:48.011Z,98124.41
2022-11-24T02:48:15.864Z,98136.59
2022-11-24T02:50:42.567Z,98132.94
2022-11-24T02:53:10.164Z,98128.91
2022-11-24T02:55:36.594Z,98133.50
2022-11-24T02:58:03.064Z,98132.34
2022-11-24T03:00:29.471Z,98139.56
2022-11-24T03:02:55.898Z,98145.59
2022-11-24T03:05:22.480Z,98149.94
2022-11-24T03:07:49.295Z,98145.91
2022-11-24T03:10:16.699Z,98147.47
2022-11-24T03:12:43.223Z,98159.09
2022-11-24T03:15:10.157Z,98155.84
2022-11-24T03:17:36.809Z,98164.94
2022-11-24T03:20:05.222Z,98175.63
2022-11-24T03:22:31.965Z,98188.00
2022-11-24T03:24:58.498Z,98190.44
2022-11-24T03:27:24.803Z,98189.28
2022-11-24T03:29:51.428Z,98195.63
2022-11-24T03:32:17.756Z,98187.63
2022-11-24T03:34:44.166Z,98194.28
2022-11-24T03:37:10.555Z,98195.59
2022-11-24T03:39:36.940Z,98204.06
2022-11-24T03:42:03.385Z,98203.72
2022-11-24T03:44:29.807Z,98197.16
2022-11-24T03:46:56.197Z,98188.16
2022-11-24T03:49:22.635Z,98187.56
2022-11-24T03:51:49.720Z,98189.81
2022-11-24T03:54:16.158Z,98187.84
2022-11-24T03:56:42.742Z,98187.50
2022-11-24T03:59:09.074Z,98184.75
2022-11-24T04:01:35.649Z,98205.91
2022-11-24T04:04:02.073Z,98204.47
2022-11-24T04:06:28.588Z,98215.38
2022-11-24T04:08:55.203Z,98213.88
2022-11-24T04:11:41.504Z,98200.81
2022-11-24T04:14:13.197Z,98208.72
2022-11-24T04:16:39.851Z,98210.13
2022-11-24T04:19:06.507Z,98213.81
2022-11-24T04:21:33.004Z,98220.00
2022-11-24T04:23:59.385Z,98208.53
2022-11-24T04:26:25.813Z,98223.59
2022-11-24T04:28:52.274Z,98203.41
2022-11-24T04:31:18.668Z,98206.56
2022-11-24T04:33:45.279Z,98208.94
2022-11-24T04:36:11.664Z,98208.44
2022-11-24T04:39:23.025Z,98197.41
2022-11-24T04:41:24.511Z,98208.41
2022-11-24T04:43:51.223Z,98194.50
2022-11-24T04:46:17.830Z,98209.84
2022-11-24T04:48:44.223Z,98217.19
2022-11-24T04:51:13.346Z,98219.88
2022-11-24T04:53:39.767Z,98221.41
2022-11-24T04:56:06.688Z,98236.88
2022-11-24T04:58:33.266Z,98230.22
2022-11-24T05:00:59.922Z,98243.19
2022-11-24T05:03:26.340Z,98242.22
2022-11-24T05:05:52.778Z,98247.56
2022-11-24T05:08:19.230Z,98242.22
2022-11-24T05:10:46.804Z,98257.31
2022-11-24T05:13:13.767Z,98257.72
2022-11-24T05:15:41.745Z,98248.06
2022-11-24T05:18:12.123Z,98241.56
2022-11-24T05:20:38.990Z,98253.94
2022-11-24T05:23:07.467Z,98250.75
2022-11-24T05:25:35.068Z,98253.22
2022-11-24T05:28:03.979Z,98249.91
2022-11-24T05:30:30.977Z,98242.06
2022-11-24T05:32:58.212Z,98240.66
2022-11-24T05:35:24.948Z,98244.34
2022-11-24T05:37:51.328Z,98238.38
2022-11-24T05:40:17.868Z,98242.97
2022-11-24T05:42:47.586Z,98232.59
2022-11-24T05:45:17.687Z,98244.97
2022-11-24T05:47:44.636Z,98238.44
2022-11-24T05:50:13.679Z,98252.91
2022-11-24T05:52:40.625Z,98255.47
2022-11-24T05:55:08.755Z,98242.72
2022-11-24T05:57:35.453Z,98243.19
2022-11-24T06:00:03.872Z,98245.50
2022-11-24T06:02:54.454Z,98243.19
2022-11-24T06:05:24.595Z,98250.69
2022-11-24T06:07:52.217Z,98246.88
2022-11-24T06:10:21.002Z,98263.91
2022-11-24T06:12:48.034Z,98261.19
2022-11-24T06:15:14.514Z,98266.38
2022-11-24T06:17:41.063Z,98272.53
2022-11-24T06:20:07.827Z,98265.53
2022-11-24T06:22:34.432Z,98272.94
2022-11-24T06:25:00.865Z,98280.34
2022-11-24T06:27:27.802Z,98266.56
2022-11-24T06:29:54.357Z,98263.56
2022-11-24T06:32:20.785Z,98284.81
2022-11-24T06:34:47.245Z,98257.09
2022-11-24T06:37:13.662Z,98270.47
2022-11-24T06:39:40.208Z,98264.75
2022-11-24T06:42:07.020Z,98272.97
2022-11-24T06:44:33.785Z,98272.16
2022-11-24T06:47:00.456Z,98274.47
2022-11-24T06:49:27.152Z,98280.34
2022-11-24T06:51:54.272Z,98281.84
2022-11-24T06:54:23.368Z,98275.69
2022-11-24T06:56:49.967Z,98277.50
2022-11-24T06:59:20.152Z,98282.88
2022-11-24T07:01:47.105Z,98281.56
2022-11-24T07:04:13.984Z,98289.59
2022-11-24T07:06:41.373Z,98283.34
2022-11-24T07:09:09.547Z,98290.56
2022-11-24T07:11:36.317Z,98297.56
2022-11-24T07:14:03.179Z,98305.22
2022-11-24T07:16:30.059Z,98313.91
2022-11-24T07:18:57.739Z,98310.50
2022-11-24T07:21:25.714Z,98313.13
2022-11-24T07:23:54.148Z,98326.50
2022-11-24T07:26:21.511Z,98313.13
2022-11-24T07:28:47.972Z,98326.56
2022-11-24T07:31:18.755Z,98314.88
2022-11-24T07:33:49.848Z,98324.81
2022-11-24T07:36:16.527Z,98326.56
2022-11-24T07:38:43.084Z,98332.56
2022-11-24T07:41:11.363Z,98324.22
2022-11-24T07:43:38.664Z,98362.97
2022-11-24T07:46:06.963Z,98352.09
2022-11-24T07:48:34.373Z,98358.97
2022-11-24T07:51:02.400Z,98354.78
2022-11-24T07:53:29.116Z,98351.63
2022-11-24T07:55:57.026Z,98367.66
2022-11-24T07:58:27.619Z,98364.81
2022-11-24T08:00:56.865Z,98365.00
2022-11-24T08:03:23.922Z,98369.03
2022-11-24T08:06:23.205Z,98363.34
2022-11-24T08:08:45.210Z,98370.53
2022-11-24T08:11:17.266Z,98372.03
2022-11-24T08:13:43.992Z,98383.22
2022-11-24T08:16:12.788Z,98378.03
2022-11-24T08:18:39.552Z,98367.03
2022-11-24T08:21:06.403Z,98378.53
2022-11-24T08:23:33.143Z,98388.06
2022-11-24T08:26:05.055Z,98404.06
2022-11-24T08:28:32.483Z,98404.88
2022-11-24T08:31:06.881Z,98406.53
2022-11-24T08:33:33.593Z,98399.06
2022-11-24T08:36:04.208Z,98404.03
2022-11-24T08:38:30.746Z,98405.56
2022-11-24T08:41:01.813Z,98406.03
2022-11-24T08:43:28.311Z,98404.06
2022-11-24T08:45:54.750Z,98409.88
2022-11-24T08:48:21.261Z,98418.56
2022-11-24T08:50:47.644Z,98418.03
2022-11-24T08:53:16.121Z,98426.38
2022-11-24T08:55:42.588Z,98428.72
2022-11-24T08:58:08.987Z,98432.38
2022-11-24T09:00:35.522Z,98430.56
2022-11-24T09:03:01.904Z,98435.66
2022-11-24T09:05:51.310Z,98436.69
2022-11-24T09:08:14.664Z,98444.38
2022-11-24T09:10:41.036Z,98455.38
2022-11-24T09:13:08.506Z,98445.91
2022-11-24T09:15:35.344Z,98459.06
2022-11-24T09:18:01.743Z,98464.75
2022-11-24T09:20:28.320Z,98459.56
2022-11-24T09:22:55.946Z,98468.06
2022-11-24T09:25:23.610Z,98466.56
2022-11-24T09:27:51.001Z,98466.91
2022-11-24T09:30:17.791Z,98476.09
2022-11-24T09:32:44.402Z,98484.13
2022-11-24T09:35:10.710Z,98482.97
2022-11-24T09:37:37.190Z,98484.44
2022-11-24T09:40:03.939Z,98488.13
2022-11-24T09:43:03.551Z,98498.16
2022-11-24T09:46:04.615Z,98493.81
2022-11-24T09:48:34.670Z,98497.47
2022-11-24T09:51:04.277Z,98505.00
2022-11-24T09:53:45.915Z,98507.13
2022-11-24T09:56:25.884Z,98504.78
2022-11-24T09:58:59.248Z,98518.13
2022-11-24T10:01:37.462Z,98512.44
2022-11-24T10:04:10.707Z,98505.72
2022-11-24T10:06:54.063Z,98515.78
2022-11-24T10:09:51.976Z,98516.75
2022-11-24T10:13:02.124Z,98515.75
2022-11-24T10:15:54.112Z,98510.47
2022-11-24T10:18:50.133Z,98506.97
2022-11-24T10:21:42.123Z,98515.00
2022-11-24T10:24:26.570Z,98515.66
2022-11-24T10:27:02.168Z,98503.75
2022-11-24T10:29:30.713Z,98523.06
2022-11-24T10:31:57.804Z,98523.69
2022-11-24T10:34:27.091Z,98510.66
2022-11-24T10:37:05.854Z,98519.66
2022-11-24T10:40:00.064Z,98516.75
2022-11-24T10:42:28.625Z,98525.28
2022-11-24T10:45:26.525Z,98519.66
2022-11-24T10:47:52.944Z,98514.31
2022-11-24T10:50:22.457Z,98527.59
2022-11-24T10:53:03.440Z,98516.72
2022-11-24T10:55:58.661Z,98525.28
2022-11-24T10:58:38.273Z,98518.09
2022-11-24T11:01:14.247Z,98522.09
2022-11-24T11:03:59.600Z,98518.38
2022-11-24T11:06:28.994Z,98523.03
2022-11-24T11:09:07.952Z,98530.59
2022-11-24T11:11:36.299Z,98523.69
2022-11-24T11:14:05.102Z,98530.34
2022-11-24T11:16:38.124Z,98520.81
2022-11-24T11:19:47.873Z,98530.59
2022-11-24T11:22:24.547Z,98531.63
2022-11-24T11:25:04.521Z,98527.50
2022-11-24T11:27:31.173Z,98529.41
2022-11-24T11:35:50.215Z,98521.72
2022-11-24T11:38:16.759Z,98536.13
2022-11-24T11:40:43.791Z,98530.44
2022-11-24T11:43:24.736Z,98516.72
2022-11-24T11:46:02.122Z,98516.16
2022-11-24T11:48:42.716Z,98506.19
2022-11-24T11:51:25.842Z,98527.34
2022-11-24T11:54:34.813Z,98526.69
2022-11-24T11:57:17.674Z,98530.41
2022-11-24T12:00:17.591Z,98518.47
2022-11-24T12:03:08.366Z,98542.31
2022-11-24T12:05:52.880Z,98535.75
2022-11-24T12:09:03.299Z,98545.28
2022-11-24T12:11:31.852Z,98547.47
2022-11-24T12:14:41.994Z,98545.53
2022-11-24T12:17:24.618Z,98540.22
2022-11-24T12:20:00.540Z,98530.16
2022-11-24T12:22:58.035Z,98529.34
2022-11-24T12:25:38.116Z,98538.41
2022-11-24T12:28:29.409Z,98533.91
2022-11-24T12:31:06.825Z,98533.59
2022-11-24T12:34:01.179Z,98524.13
2022-11-24T12:36:46.673Z,98532.03
2022-11-24T12:39:30.767Z,98531.25
2022-11-24T12:42:09.049Z,98520.47
2022-11-24T12:44:52.208Z,98516.81
2022-11-24T12:47:24.365Z,98517.19
2022-11-24T12:50:14.593Z,98521.63
2022-11-24T12:52:54.138Z,98515.63
2022-11-24T12:55:25.400Z,98518.50
2022-11-24T12:58:11.402Z,98518.97
2022-11-24T13:00:52.790Z,98515.66
2022-11-24T13:03:40.851Z,98521.34
2022-11-24T13:06:19.644Z,98519.59
2022-11-24T13:08:46.541Z,98514.16
2022-11-24T13:11:22.071Z,98513.78
2022-11-24T13:14:00.601Z,98510.41
2022-11-24T13:16:36.213Z,98512.47
2022-11-24T13:19:17.200Z,98522.03
2022-11-24T13:21:45.374Z,98515.22
2022-11-24T13:24:18.560Z,98519.53
2022-11-24T13:26:49.043Z,98504.47
2022-11-24T13:29:25.538Z,98512.31
2022-11-24T13:31:52.245Z,98508.19
2022-11-24T13:34:40.239Z,98498.59
2022-11-24T13:37:26.489Z,98504.63
2022-11-24T13:40:23.172Z,98500.56
2022-11-24T13:43:01.318Z,98506.28
2022-11-24T13:45:40.544Z,98497.41
2022-11-24T13:48:19.134Z,98502.66
2022-11-24T13:50:53.001Z,98503.78
2022-11-24T13:53:32.116Z,98508.88
2022-11-24T13:55:59.679Z,98515.84
2022-11-24T13:58:30.539Z,98510.09
2022-11-24T14:01:08.891Z,98522.34
2022-11-24T14:06:51.518Z,98516.13
2022-11-24T14:09:44.599Z,98523.06
2022-11-24T14:12:12.711Z,98516.16
2022-11-24T14:14:40.344Z,98508.75
2022-11-24T14:17:14.031Z,98509.38
2022-11-24T14:19:41.617Z,98510.38
2022-11-24T14:22:30.946Z,98513.88
2022-11-24T14:25:01.419Z,98494.97
2022-11-24T14:27:45.950Z,98497.22
2022-11-24T14:30:13.502Z,98493.91
2022-11-24T14:32:40.613Z,98505.56
2022-11-24T14:35:25.445Z,98495.72
2022-11-24T14:37:52.209Z,98505.31
2022-11-24T14:40:36.966Z,98497.38
2022-11-24T14:43:34.586Z,98507.00
2022-11-24T14:46:04.577Z,98503.94
2022-11-24T14:48:47.860Z,98505.28
2022-11-24T14:51:23.036Z,98498.88
2022-11-24T14:53:53.816Z,98486.50
2022-11-24T14:56:24.965Z,98489.84
2022-11-24T14:58:52.049Z,98480.09
2022-11-24T15:01:21.211Z,98480.06
2022-11-24T15:07:29.468Z,98474.44
2022-11-24T15:09:58.515Z,98463.69
2022-11-24T15:12:29.319Z,98464.69
2022-11-24T15:15:00.955Z,98464.09
2022-11-24T15:17:29.035Z,98463.19
2022-11-24T15:20:00.007Z,98474.63
2022-11-24T15:22:38.417Z,98473.53
2022-11-24T15:25:25.883Z,98483.56
2022-11-24T15:27:52.769Z,98481.44
2022-11-24T15:30:19.956Z,98483.66
2022-11-24T15:32:50.736Z,98483.97
2022-11-24T15:35:17.270Z,98477.41
2022-11-24T15:37:43.883Z,98483.59
2022-11-24T15:40:14.036Z,98476.09
2022-11-24T15:42:41.052Z,98473.47
2022-11-24T15:45:07.996Z,98481.06
2022-11-24T15:48:02.351Z,98490.22
2022-11-24T15:50:28.819Z,98490.94
2022-11-24T15:52:57.130Z,98490.28
2022-11-24T15:55:23.600Z,98495.97
2022-11-24T15:57:50.111Z,98505.63
2022-11-24T16:00:21.359Z,98500.97
2022-11-24T16:05:55.711Z,98509.13
2022-11-24T16:08:22.251Z,98510.22
2022-11-24T16:10:48.856Z,98502.22
2022-11-24T16:13:15.369Z,98506.88
2022-11-24T16:15:41.798Z,98517.56
2022-11-24T16:18:08.447Z,98517.22
2022-11-24T16:20:36.007Z,98512.53
2022-11-24T16:23:04.352Z,98517.34
2022-11-24T16:25:39.628Z,98528.06
2022-11-24T16:28:07.692Z,98535.50
2022-11-24T16:30:35.220Z,98529.47
2022-11-24T16:33:06.643Z,98517.75
2022-11-24T16:35:33.731Z,98522.38
2022-11-24T16:38:00.140Z,98522.66
2022-11-24T16:40:27.070Z,98526.31
2022-11-24T16:42:56.144Z,98522.38
2022-11-24T16:45:22.916Z,98520.53
2022-11-24T16:47:49.757Z,98522.97
2022-11-24T16:50:16.922Z,98533.91
2022-11-24T16:52:43.776Z,98531.19
2022-11-24T16:55:11.582Z,98526.03
2022-11-24T16:57:38.280Z,98538.88
2022-11-24T17:00:06.116Z,98535.13
2022-11-24T17:02:33.443Z,98533.59
2022-11-24T17:05:00.135Z,98536.19
2022-11-24T17:07:26.777Z,98541.13
2022-11-24T17:09:54.344Z,98538.47
2022-11-24T17:12:20.818Z,98546.63
2022-11-24T17:15:09.367Z,98545.72
2022-11-24T17:17:33.731Z,98544.75
2022-11-24T17:20:00.890Z,98548.00
2022-11-24T17:22:27.992Z,98538.78
2022-11-24T17:24:54.715Z,98537.88
2022-11-24T17:27:21.280Z,98541.53
2022-11-24T17:29:47.672Z,98538.50
2022-11-24T17:32:14.240Z,98532.50
2022-11-24T17:34:40.689Z,98536.38
2022-11-24T17:37:07.461Z,98543.59
2022-11-24T17:39:34.248Z,98543.75
2022-11-24T17:42:00.705Z,98535.84
2022-11-24T17:44:27.533Z,98539.72
2022-11-24T17:46:54.223Z,98546.50
2022-11-24T17:49:21.119Z,98531.50
2022-11-24T17:51:51.521Z,98539.41
2022-11-24T17:57:05.910Z,98521.22
2022-11-24T17:59:32.606Z,98523.97
2022-11-24T18:01:59.287Z,98522.38
2022-11-24T18:04:25.651Z,98522.19
2022-11-24T18:06:52.107Z,98527.22
2022-11-24T18:09:18.510Z,98520.53
2022-11-24T18:11:45.021Z,98518.47
2022-11-24T18:14:11.641Z,98524.47
2022-11-24T18:16:38.006Z,98533.59
2022-11-24T18:19:10.457Z,98521.81
2022-11-24T18:21:40.160Z,98524.84
2022-11-24T18:24:09.651Z,98534.28
2022-11-24T18:26:36.961Z,98524.84
2022-11-24T18:29:04.327Z,98529.09
2022-11-24T18:31:32.329Z,98534.03
2022-11-24T18:33:59.425Z,98532.06
2022-11-24T18:36:30.376Z,98519.66
2022-11-24T18:39:00.899Z,98535.31
2022-11-24T18:41:27.499Z,98537.53
2022-11-24T18:43:53.948Z,98529.31
2022-11-24T18:46:20.587Z,98529.69
2022-11-24T18:48:47.185Z,98531.66
2022-11-24T18:51:16.729Z,98537.44
2022-11-24T18:53:45.110Z,98538.72
2022-11-24T18:56:16.715Z,98543.69
2022-11-24T18:58:43.910Z,98532.16
2022-11-24T19:01:16.733Z,98524.47
2022-11-24T19:03:48.776Z,98522.59
2022-11-24T19:06:28.793Z,98523.28
2022-11-24T19:08:55.996Z,98525.84
2022-11-24T19:11:23.817Z,98523.50
2022-11-24T19:14:15.269Z,98514.59
2022-11-24T19:16:42.738Z,98514.03
2022-11-24T19:19:11.576Z,98511.13
2022-11-24T19:21:39.748Z,98498.53
2022-11-24T19:24:09.868Z,98513.63
2022-11-24T19:26:37.708Z,98514.72
2022-11-24T19:29:05.947Z,98517.44
2022-11-24T19:31:33.957Z,98516.19
2022-11-24T19:34:03.335Z,98516.06
2022-11-24T19:36:30.119Z,98516.78
2022-11-24T19:38:57.552Z,98519.00
2022-11-24T19:41:30.371Z,98516.63
2022-11-24T19:43:58.628Z,98529.06
2022-11-24T19:46:27.965Z,98523.75
2022-11-24T19:48:57.022Z,98516.78
2022-11-24T19:51:26.860Z,98517.38
2022-11-24T19:53:54.160Z,98517.16
2022-11-24T19:56:24.049Z,98515.94
2022-11-24T19:58:51.611Z,98519.06
2022-11-24T20:01:26.093Z,98509.81
2022-11-24T20:04:00.988Z,98510.41
2022-11-24T20:06:32.621Z,98512.94
2022-11-24T20:09:02.873Z,98503.69
2022-11-24T20:11:30.087Z,98508.50
2022-11-24T20:13:57.773Z,98508.19
2022-11-24T20:16:38.054Z,98504.28
2022-11-24T20:19:09.727Z,98508.63
2022-11-24T20:21:37.547Z,98500.69
2022-11-24T20:24:11.374Z,98513.97
2022-11-24T20:26:45.074Z,98511.31
2022-11-24T20:29:13.317Z,98513.28
2022-11-24T20:31:45.563Z,98515.06
2022-11-24T20:34:13.276Z,98518.59
2022-11-24T20:36:43.219Z,98517.16
2022-11-24T20:39:13.938Z,98512.19
2022-11-24T20:41:41.293Z,98511.59
2022-11-24T20:44:13.011Z,98521.94
2022-11-24T20:46:41.963Z,98515.25
2022-11-24T20:49:12.086Z,98512.63
2022-11-24T20:51:44.027Z,98507.16
2022-11-24T20:54:13.007Z,98506.59
2022-11-24T20:56:41.649Z,98498.09
2022-11-24T20:59:11.838Z,98495.16
2022-11-24T21:01:40.812Z,98493.78
2022-11-24T21:04:13.338Z,98501.88
2022-11-24T21:06:41.306Z,98494.63
2022-11-24T21:09:09.069Z,98503.97
2022-11-24T21:11:36.618Z,98501.88
2022-11-24T21:14:04.248Z,98499.66
2022-11-24T21:16:33.905Z,98498.25
2022-11-24T21:19:12.576Z,98508.88
2022-11-24T21:21:40.955Z,98496.31
2022-11-24T21:24:21.442Z,98504.97
2022-11-24T21:26:49.103Z,98501.75
2022-11-24T21:29:17.759Z,98510.81
2022-11-24T21:31:44.342Z,98500.06
2022-11-24T21:34:13.780Z,98503.00
2022-11-24T21:36:44.548Z,98485.41
2022-11-24T21:39:13.500Z,98491.28
2022-11-24T21:41:40.601Z,98484.31
2022-11-24T21:44:07.220Z,98481.38
2022-11-24T21:46:38.960Z,98483.59
2022-11-24T21:49:07.639Z,98474.09
2022-11-24T21:51:34.011Z,98473.00
2022-11-24T21:54:00.845Z,98479.00
2022-11-24T21:56:27.520Z,98468.66
2022-11-24T21:58:57.149Z,98485.41
2022-11-24T22:01:27.844Z,98480.38
2022-11-24T22:03:54.979Z,98478.69
2022-11-24T22:06:21.423Z,98476.03
2022-11-24T22:08:48.902Z,98480.94
2022-11-24T22:11:18.305Z,98481.63
2022-11-24T22:13:45.544Z,98480.94
2022-11-24T22:16:14.788Z,98478.72
2022-11-24T22:18:42.519Z,98484.97
2022-11-24T22:21:16.116Z,98490.28
2022-11-24T22:23:43.401Z,98495.19
2022-11-24T22:26:14.262Z,98507.19
2022-11-24T22:28:41.082Z,98506.22
2022-11-24T22:31:13.149Z,98500.78
2022-11-24T22:33:40.147Z,98514.16
2022-11-24T22:36:07.079Z,98510.25
2022-11-24T22:38:34.243Z,98516.38
2022-11-24T22:41:06.360Z,98512.63
2022-11-24T22:43:35.202Z,98520.03
2022-11-24T22:46:21.769Z,98515.72
2022-11-24T22:48:49.991Z,98523.94
2022-11-24T22:51:22.114Z,98534.28
2022-11-24T22:53:50.499Z,98540.41
2022-11-24T22:56:18.006Z,98542.63
2022-11-24T22:58:44.481Z,98548.63
2022-11-24T23:01:22.191Z,98547.94
2022-11-24T23:03:49.598Z,98537.63
2022-11-24T23:06:17.958Z,98531.06
2022-11-24T23:08:44.693Z,98530.22
2022-11-24T23:11:15.232Z,98529.81
2022-11-24T23:13:41.981Z,98535.25
2022-11-24T23:16:14.644Z,98535.09
2022-11-24T23:18:42.121Z,98540.41
2022-11-24T23:21:12.341Z,98546.41
2022-11-24T23:23:39.319Z,98526.44
2022-11-24T23:26:08.593Z,98523.63
2022-11-24T23:28:35.351Z,98519.88
2022-11-24T23:31:09.591Z,98524.78
2022-11-24T23:33:36.690Z,98527.53
2022-11-24T23:36:09.230Z,98512.75
2022-11-24T23:38:36.198Z,98507.19
2022-11-24T23:41:04.595Z,98496.53
2022-11-24T23:43:32.525Z,98504.50
2022-11-24T23:46:07.712Z,98507.56
2022-11-24T23:48:34.375Z,98506.59
2022-11-24T23:51:04.527Z,98505.91
2022-11-24T23:53:35.474Z,98514.66
2022-11-24T23:56:02.428Z,98511.50
2022-11-24T23:58:28.874Z,98505.66
